createdAt,value
2018-11-25T00:00:15.904Z,93.50
2018-11-25T00:02:43.794Z,93.50
2018-11-25T00:05:11.779Z,93.50
2018-11-25T00:07:39.806Z,93.50
2018-11-25T00:10:07.804Z,93.50
2018-11-25T00:12:35.737Z,93.50
2018-11-25T00:15:06.457Z,93.40
2018-11-25T00:17:34.317Z,93.50
2018-11-25T00:20:02.293Z,93.60
2018-11-25T00:22:30.238Z,93.60
2018-11-25T00:24:58.466Z,93.50
2018-11-25T00:27:26.489Z,93.50
2018-11-25T00:29:54.662Z,93.40
2018-11-25T00:32:22.585Z,93.40
2018-11-25T00:34:50.612Z,93.40
2018-11-25T00:37:18.553Z,93.40
2018-11-25T00:39:46.457Z,93.40
2018-11-25T00:42:16.552Z,93.50
2018-11-25T00:44:45.659Z,93.50
2018-11-25T00:47:13.558Z,93.50
2018-11-25T00:49:41.455Z,93.40
2018-11-25T00:52:09.379Z,93.40
2018-11-25T00:54:37.216Z,93.40
2018-11-25T00:57:05.588Z,93.40
2018-11-25T00:59:33.391Z,93.40
2018-11-25T01:02:01.916Z,93.50
2018-11-25T01:04:32.172Z,93.50
2018-11-25T01:07:00.023Z,93.50
2018-11-25T01:09:28.179Z,93.50
2018-11-25T01:11:55.973Z,93.50
2018-11-25T01:14:23.807Z,93.50
2018-11-25T01:16:51.697Z,93.40
2018-11-25T01:19:20.928Z,93.40
2018-11-25T01:22:14.997Z,93.40
2018-11-25T01:24:42.860Z,93.40
2018-11-25T01:27:10.659Z,93.40
2018-11-25T01:29:38.510Z,93.40
2018-11-25T01:32:06.354Z,93.40
2018-11-25T01:34:34.221Z,93.30
2018-11-25T01:37:02.296Z,93.30
2018-11-25T01:39:30.404Z,93.30
2018-11-25T01:41:58.349Z,93.40
2018-11-25T01:44:26.152Z,93.40
2018-11-25T01:46:54.624Z,93.40
2018-11-25T01:49:22.694Z,93.30
2018-11-25T01:51:50.471Z,93.40
2018-11-25T01:54:18.361Z,93.30
2018-11-25T01:56:46.178Z,93.30
2018-11-25T01:59:14.048Z,93.40
2018-11-25T02:01:42.015Z,93.30
2018-11-25T02:04:10.033Z,93.40
2018-11-25T02:06:37.906Z,93.40
2018-11-25T02:09:08.104Z,93.40
2018-11-25T02:11:36.184Z,93.40
2018-11-25T02:14:04.291Z,93.40
2018-11-25T02:16:32.996Z,93.50
2018-11-25T02:19:00.867Z,93.50
2018-11-25T02:21:28.673Z,93.50
2018-11-25T02:23:56.715Z,93.50
2018-11-25T02:26:24.619Z,93.40
2018-11-25T02:28:52.467Z,93.40
2018-11-25T02:31:20.329Z,93.50
2018-11-25T02:33:49.607Z,93.50
2018-11-25T02:36:17.472Z,93.50
2018-11-25T02:38:45.383Z,93.50
2018-11-25T02:41:13.304Z,93.50
2018-11-25T02:43:41.244Z,93.50
2018-11-25T02:46:09.149Z,93.50
2018-11-25T02:48:37.107Z,93.50
2018-11-25T02:51:05.043Z,93.50
2018-11-25T02:53:32.934Z,93.50
2018-11-25T02:56:00.904Z,93.50
2018-11-25T02:58:28.812Z,93.50
2018-11-25T03:00:56.801Z,93.60
2018-11-25T03:03:24.843Z,93.70
2018-11-25T03:05:52.806Z,93.70
2018-11-25T03:08:21.887Z,93.80
2018-11-25T03:10:52.231Z,93.70
2018-11-25T03:13:20.083Z,93.70
2018-11-25T03:15:48.023Z,93.70
2018-11-25T03:18:15.927Z,93.80
2018-11-25T03:20:43.950Z,93.80
2018-11-25T03:23:11.776Z,93.70
2018-11-25T03:25:41.407Z,93.60
2018-11-25T03:28:09.216Z,93.60
2018-11-25T03:30:37.392Z,93.60
2018-11-25T03:33:05.742Z,93.60
2018-11-25T03:35:33.579Z,93.60
2018-11-25T03:38:01.541Z,93.60
2018-11-25T03:40:29.368Z,93.60
2018-11-25T03:42:57.256Z,93.50
2018-11-25T03:45:25.136Z,93.50
2018-11-25T03:47:53.011Z,93.50
2018-11-25T03:50:20.901Z,93.50
2018-11-25T03:52:49.174Z,93.50
2018-11-25T03:55:17.368Z,93.40
2018-11-25T03:57:45.322Z,93.40
2018-11-25T04:00:20.488Z,93.40
2018-11-25T04:02:49.673Z,93.40
2018-11-25T04:05:17.709Z,93.40
2018-11-25T04:07:47.560Z,93.40
2018-11-25T04:10:16.698Z,93.40
2018-11-25T04:12:44.739Z,93.40
2018-11-25T04:17:47.842Z,93.40
2018-11-25T04:20:17.948Z,93.40
2018-11-25T04:22:45.837Z,93.50
2018-11-25T04:25:13.845Z,93.40
2018-11-25T04:27:41.700Z,93.50
2018-11-25T04:30:12.809Z,93.50
2018-11-25T04:32:40.767Z,93.50
2018-11-25T04:35:10.190Z,93.50
2018-11-25T04:37:38.627Z,93.50
2018-11-25T04:40:10.099Z,93.40
2018-11-25T04:42:38.002Z,93.40
2018-11-25T04:45:09.352Z,93.40
2018-11-25T04:47:37.417Z,93.40
2018-11-25T04:50:10.918Z,93.40
2018-11-25T04:52:38.744Z,93.50
2018-11-25T04:55:07.092Z,93.60
2018-11-25T04:57:45.688Z,93.50
2018-11-25T05:00:13.692Z,93.50
2018-11-25T05:02:42.636Z,93.60
2018-11-25T05:05:12.848Z,93.60
2018-11-25T05:07:40.732Z,93.60
2018-11-25T05:10:17.158Z,93.60
2018-11-25T05:12:45.127Z,93.70
2018-11-25T05:15:16.190Z,93.70
2018-11-25T05:17:44.067Z,93.70
2018-11-25T05:20:13.049Z,93.60
2018-11-25T05:22:40.946Z,93.60
2018-11-25T05:25:10.720Z,93.60
2018-11-25T05:27:38.890Z,93.50
2018-11-25T05:30:13.621Z,93.50
2018-11-25T05:32:41.541Z,93.50
2018-11-25T05:35:11.077Z,93.50
2018-11-25T05:37:38.976Z,93.50
2018-11-25T05:40:15.803Z,93.50
2018-11-25T05:42:43.811Z,93.40
2018-11-25T05:45:18.694Z,93.40
2018-11-25T05:47:46.656Z,93.40
2018-11-25T05:50:17.554Z,93.40
2018-11-25T05:52:45.454Z,93.40
2018-11-25T05:55:13.496Z,93.40
2018-11-25T05:57:41.721Z,93.40
2018-11-25T06:00:12.397Z,93.40
2018-11-25T06:02:40.276Z,93.40
2018-11-25T06:05:08.274Z,93.40
2018-11-25T06:07:36.285Z,93.40
2018-11-25T06:10:05.973Z,93.40
2018-11-25T06:12:33.822Z,93.40
2018-11-25T06:15:01.893Z,93.40
2018-11-25T06:17:30.017Z,93.40
2018-11-25T06:19:57.967Z,93.40
2018-11-25T06:22:25.916Z,93.40
2018-11-25T06:24:53.768Z,93.30
2018-11-25T06:27:21.616Z,93.30
2018-11-25T06:29:49.564Z,93.30
2018-11-25T06:32:17.703Z,93.40
2018-11-25T06:34:45.551Z,93.60
2018-11-25T06:37:13.428Z,93.40
2018-11-25T06:39:41.301Z,93.30
2018-11-25T06:42:09.088Z,93.30
2018-11-25T06:44:36.890Z,93.20
2018-11-25T06:47:05.026Z,93.10
2018-11-25T06:49:32.846Z,93.10
2018-11-25T06:52:00.705Z,93.00
2018-11-25T06:54:28.649Z,93.20
2018-11-25T06:56:56.901Z,93.20
2018-11-25T06:59:24.314Z,93.10
2018-11-25T07:01:52.632Z,93.00
2018-11-25T07:04:20.447Z,92.90
2018-11-25T07:06:48.341Z,93.20
2018-11-25T07:09:16.180Z,92.80
2018-11-25T07:11:44.076Z,92.80
2018-11-25T07:14:12.180Z,92.70
2018-11-25T07:16:40.124Z,92.60
2018-11-25T07:19:11.671Z,92.50
2018-11-25T07:21:39.650Z,92.50
2018-11-25T07:24:07.639Z,92.50
2018-11-25T07:26:35.435Z,92.40
2018-11-25T07:29:03.288Z,92.30
2018-11-25T07:31:31.089Z,92.40
2018-11-25T07:33:59.080Z,92.40
2018-11-25T07:36:26.916Z,92.30
2018-11-25T07:38:54.801Z,92.20
2018-11-25T07:41:22.666Z,92.20
2018-11-25T07:43:50.488Z,92.10
2018-11-25T07:46:18.282Z,91.90
2018-11-25T07:48:46.216Z,91.80
2018-11-25T07:51:15.406Z,91.80
2018-11-25T07:53:43.196Z,91.80
2018-11-25T07:56:11.079Z,91.70
2018-11-25T07:58:39.478Z,91.50
2018-11-25T08:01:07.326Z,91.40
2018-11-25T08:03:35.109Z,91.40
2018-11-25T08:06:03.003Z,91.40
2018-11-25T08:08:30.951Z,91.40
2018-11-25T08:10:58.892Z,91.40
2018-11-25T08:13:27.076Z,91.40
2018-11-25T08:15:55.191Z,91.50
2018-11-25T08:18:23.089Z,91.30
2018-11-25T08:20:50.955Z,91.20
2018-11-25T08:23:18.788Z,90.90
2018-11-25T08:25:46.660Z,90.80
2018-11-25T08:28:14.561Z,91.30
2018-11-25T08:30:49.281Z,90.70
2018-11-25T08:33:17.146Z,90.50
2018-11-25T08:35:45.021Z,90.30
2018-11-25T08:38:13.269Z,90.20
2018-11-25T08:40:41.315Z,90.00
2018-11-25T08:43:09.141Z,89.70
2018-11-25T08:45:37.309Z,88.90
2018-11-25T08:48:05.364Z,88.50
2018-11-25T08:50:33.364Z,88.30
2018-11-25T08:53:02.654Z,87.50
2018-11-25T08:55:30.568Z,86.80
2018-11-25T08:57:58.492Z,86.50
2018-11-25T09:00:27.361Z,86.10
2018-11-25T09:02:56.519Z,85.90
2018-11-25T09:05:24.369Z,85.50
2018-11-25T09:07:52.304Z,84.80
2018-11-25T09:10:21.214Z,84.00
2018-11-25T09:12:55.849Z,83.20
2018-11-25T09:15:24.810Z,82.30
2018-11-25T09:17:52.868Z,82.10
2018-11-25T09:20:22.319Z,81.60
2018-11-25T09:22:51.135Z,81.40
2018-11-25T09:25:23.909Z,81.00
2018-11-25T09:27:51.887Z,81.50
2018-11-25T09:30:21.364Z,81.60
2018-11-25T09:32:49.314Z,81.50
2018-11-25T09:35:17.555Z,81.60
2018-11-25T09:37:45.916Z,81.70
2018-11-25T09:40:15.408Z,81.70
2018-11-25T09:42:43.429Z,81.70
2018-11-25T09:45:12.771Z,81.60
2018-11-25T09:47:41.001Z,81.90
2018-11-25T09:50:13.435Z,82.20
2018-11-25T09:52:41.468Z,82.20
2018-11-25T09:55:12.773Z,82.40
2018-11-25T09:57:43.030Z,82.50
2018-11-25T10:00:18.350Z,82.70
2018-11-25T10:02:46.223Z,83.00
2018-11-25T10:05:14.147Z,84.00
2018-11-25T10:07:42.163Z,83.30
2018-11-25T10:10:18.946Z,83.50
2018-11-25T10:12:46.793Z,83.70
2018-11-25T10:15:16.203Z,83.80
2018-11-25T10:17:44.052Z,83.80
2018-11-25T10:20:15.494Z,84.10
2018-11-25T10:22:44.606Z,84.00
2018-11-25T10:25:13.756Z,83.90
2018-11-25T10:27:41.690Z,84.30
2018-11-25T10:30:15.580Z,84.60
2018-11-25T10:32:44.082Z,84.30
2018-11-25T10:35:11.953Z,84.10
2018-11-25T10:37:39.875Z,84.10
2018-11-25T10:40:23.486Z,83.70
2018-11-25T10:42:51.378Z,83.30
2018-11-25T10:45:21.739Z,83.40
2018-11-25T10:47:49.657Z,83.20
2018-11-25T10:50:18.668Z,83.30
2018-11-25T10:52:46.652Z,83.90
2018-11-25T10:55:16.416Z,84.10
2018-11-25T10:57:45.510Z,84.40
2018-11-25T11:00:35.473Z,84.70
2018-11-25T11:03:11.759Z,84.80
2018-11-25T11:05:45.906Z,85.00
2018-11-25T11:08:14.968Z,85.50
2018-11-25T11:10:44.260Z,85.70
2018-11-25T11:13:13.705Z,85.90
2018-11-25T11:15:41.882Z,86.10
2018-11-25T11:18:09.711Z,86.50
2018-11-25T11:20:37.560Z,86.70
2018-11-25T11:23:05.994Z,86.80
2018-11-25T11:25:34.283Z,87.00
2018-11-25T11:28:03.306Z,87.10
2018-11-25T11:30:32.387Z,87.40
2018-11-25T11:33:01.147Z,87.70
2018-11-25T11:35:31.039Z,87.70
2018-11-25T11:38:06.801Z,87.80
2018-11-25T11:40:35.739Z,87.80
2018-11-25T11:43:04.529Z,87.70
2018-11-25T11:45:46.660Z,87.40
2018-11-25T11:48:15.009Z,87.40
2018-11-25T11:50:43.264Z,87.50
2018-11-25T11:56:02.789Z,87.70
2018-11-25T11:58:30.665Z,87.70
2018-11-25T12:00:58.484Z,87.30
2018-11-25T12:03:27.042Z,87.10
2018-11-25T12:05:55.192Z,86.70
2018-11-25T12:08:23.000Z,86.60
2018-11-25T12:10:50.858Z,86.70
2018-11-25T12:13:18.912Z,86.80
2018-11-25T12:15:46.871Z,87.00
2018-11-25T12:18:14.742Z,87.20
2018-11-25T12:20:42.621Z,87.10
2018-11-25T12:23:22.535Z,86.90
2018-11-25T12:25:52.524Z,86.90
2018-11-25T12:28:26.184Z,86.80
2018-11-25T12:30:56.980Z,87.00
2018-11-25T12:33:25.160Z,87.10
2018-11-25T12:35:52.971Z,87.60
2018-11-25T12:38:20.889Z,87.50
2018-11-25T12:40:48.857Z,87.20
2018-11-25T12:43:16.703Z,87.40
2018-11-25T12:45:46.784Z,87.20
2018-11-25T12:48:16.128Z,87.10
2018-11-25T12:50:46.418Z,87.10
2018-11-25T12:53:15.925Z,87.20
2018-11-25T12:55:45.400Z,87.30
2018-11-25T12:58:14.988Z,87.40
2018-11-25T13:00:46.900Z,87.60
2018-11-25T13:03:16.227Z,87.60
2018-11-25T13:05:46.368Z,88.00
2018-11-25T13:08:16.563Z,87.80
2018-11-25T13:10:46.757Z,87.50
2018-11-25T13:13:16.393Z,87.50
2018-11-25T13:15:45.723Z,87.60
2018-11-25T13:18:15.068Z,87.40
2018-11-25T13:20:44.110Z,87.40
2018-11-25T13:23:13.633Z,87.60
2018-11-25T13:25:42.729Z,87.30
2018-11-25T13:31:08.634Z,87.70
2018-11-25T13:33:46.135Z,87.60
2018-11-25T13:36:24.330Z,87.40
2018-11-25T13:38:56.079Z,87.20
2018-11-25T13:41:36.934Z,87.10
2018-11-25T13:44:09.063Z,87.30
2018-11-25T13:46:45.439Z,87.40
2018-11-25T13:49:17.719Z,87.70
2018-11-25T13:51:46.797Z,88.60
2018-11-25T13:54:16.939Z,88.30
2018-11-25T13:56:47.072Z,88.30
2018-11-25T13:59:16.784Z,89.20
2018-11-25T14:01:46.112Z,89.30
2018-11-25T14:04:15.811Z,89.20
2018-11-25T14:06:45.246Z,89.20
2018-11-25T14:11:51.090Z,89.70
2018-11-25T14:14:20.421Z,89.40
2018-11-25T14:16:50.092Z,89.20
2018-11-25T14:19:19.472Z,88.90
2018-11-25T14:21:48.769Z,88.80
2018-11-25T14:24:18.157Z,89.30
2018-11-25T14:26:54.412Z,89.40
2018-11-25T14:29:31.480Z,89.70
2018-11-25T14:32:07.416Z,90.00
2018-11-25T14:34:43.516Z,90.10
2018-11-25T14:37:17.852Z,90.10
2018-11-25T14:39:55.984Z,90.10
2018-11-25T14:42:25.910Z,90.20
2018-11-25T14:44:58.692Z,90.10
2018-11-25T14:47:28.389Z,90.20
2018-11-25T14:49:57.561Z,90.20
2018-11-25T14:52:26.704Z,90.30
2018-11-25T14:54:55.830Z,90.30
2018-11-25T14:57:24.295Z,90.40
2018-11-25T14:59:52.155Z,90.50
2018-11-25T15:02:22.864Z,90.60
2018-11-25T15:04:50.687Z,90.60
2018-11-25T15:07:18.637Z,90.80
2018-11-25T15:09:46.598Z,90.90
2018-11-25T15:12:14.472Z,91.00
2018-11-25T15:14:42.358Z,91.10
2018-11-25T15:17:10.421Z,91.30
2018-11-25T15:19:38.508Z,91.40
2018-11-25T15:22:06.371Z,91.60
2018-11-25T15:24:35.652Z,91.80
2018-11-25T15:27:04.732Z,92.00
2018-11-25T15:29:33.517Z,92.10
2018-11-25T15:32:01.526Z,92.50
2018-11-25T15:34:29.379Z,92.40
2018-11-25T15:36:57.311Z,92.40
2018-11-25T15:39:26.119Z,92.40
2018-11-25T15:41:54.334Z,92.70
2018-11-25T15:44:25.724Z,92.60
2018-11-25T15:46:54.185Z,92.50
2018-11-25T15:49:22.057Z,92.90
2018-11-25T15:51:50.519Z,92.60
2018-11-25T15:54:18.989Z,92.50
2018-11-25T15:56:46.852Z,92.70
2018-11-25T15:59:14.823Z,92.50
2018-11-25T16:01:42.748Z,92.50
2018-11-25T16:04:10.716Z,92.40
2018-11-25T16:06:38.659Z,92.30
2018-11-25T16:09:08.149Z,92.30
2018-11-25T16:11:40.576Z,92.30
2018-11-25T16:14:08.951Z,92.20
2018-11-25T16:16:36.840Z,92.20
2018-11-25T16:19:05.006Z,92.20
2018-11-25T16:21:33.734Z,92.20
2018-11-25T16:24:03.238Z,92.10
2018-11-25T16:26:34.556Z,92.20
2018-11-25T16:29:14.136Z,92.30
2018-11-25T16:31:42.133Z,92.20
2018-11-25T16:34:11.571Z,92.20
2018-11-25T16:36:40.545Z,92.20
2018-11-25T16:39:10.059Z,92.10
2018-11-25T16:41:38.868Z,92.30
2018-11-25T16:44:08.558Z,92.40
2018-11-25T16:46:37.850Z,92.50
2018-11-25T16:49:07.687Z,92.50
2018-11-25T16:51:37.824Z,92.40
2018-11-25T16:54:08.181Z,92.50
2018-11-25T16:56:38.516Z,92.50
2018-11-25T16:59:07.736Z,92.40
2018-11-25T17:01:35.636Z,92.40
2018-11-25T17:04:03.738Z,92.30
2018-11-25T17:06:32.554Z,92.30
2018-11-25T17:09:02.034Z,92.20
2018-11-25T17:11:31.534Z,92.30
2018-11-25T17:14:00.492Z,92.20
2018-11-25T17:16:30.714Z,92.10
2018-11-25T17:19:00.170Z,92.00
2018-11-25T17:21:28.019Z,92.10
2018-11-25T17:23:55.964Z,92.00
2018-11-25T17:26:24.008Z,91.90
2018-11-25T17:28:52.100Z,92.00
2018-11-25T17:31:20.236Z,92.00
2018-11-25T17:33:48.084Z,92.20
2018-11-25T17:36:16.054Z,92.10
2018-11-25T17:38:43.919Z,92.10
2018-11-25T17:41:11.950Z,92.20
2018-11-25T17:43:39.847Z,92.10
2018-11-25T17:46:07.738Z,92.10
2018-11-25T17:48:35.678Z,92.20
2018-11-25T17:51:03.660Z,92.30
2018-11-25T17:53:31.504Z,92.20
2018-11-25T17:55:59.444Z,92.40
2018-11-25T17:58:27.419Z,92.30
2018-11-25T18:01:05.683Z,92.30
2018-11-25T18:03:35.744Z,92.20
2018-11-25T18:06:03.779Z,92.20
2018-11-25T18:08:31.826Z,92.30
2018-11-25T18:10:59.797Z,92.30
2018-11-25T18:13:30.241Z,92.30
2018-11-25T18:16:00.525Z,92.30
2018-11-25T18:18:39.344Z,92.40
2018-11-25T18:21:15.047Z,92.50
2018-11-25T18:23:43.110Z,92.50
2018-11-25T18:26:11.042Z,92.70
2018-11-25T18:28:38.977Z,92.70
2018-11-25T18:31:27.356Z,92.70
2018-11-25T18:33:58.398Z,92.60
2018-11-25T18:36:28.146Z,92.60
2018-11-25T18:38:57.186Z,92.70
2018-11-25T18:41:28.268Z,92.70
2018-11-25T18:43:58.441Z,92.80
2018-11-25T18:46:29.000Z,92.80
2018-11-25T18:48:58.813Z,92.90
2018-11-25T18:51:28.661Z,92.90
2018-11-25T18:53:58.259Z,93.00
2018-11-25T18:56:29.166Z,92.90
2018-11-25T18:58:57.881Z,92.90
2018-11-25T19:01:48.870Z,92.90
2018-11-25T19:04:18.778Z,92.90
2018-11-25T19:06:49.184Z,92.90
2018-11-25T19:09:18.269Z,93.10
2018-11-25T19:11:49.949Z,93.00
2018-11-25T19:14:19.343Z,93.10
2018-11-25T19:16:56.592Z,92.90
2018-11-25T19:19:25.788Z,93.10
2018-11-25T19:24:42.298Z,92.80
2018-11-25T19:27:14.464Z,92.90
2018-11-25T19:29:44.720Z,92.80
2018-11-25T19:32:15.861Z,92.70
2018-11-25T19:34:47.974Z,92.70
2018-11-25T19:37:17.863Z,92.70
2018-11-25T19:39:51.338Z,93.10
2018-11-25T19:42:28.068Z,92.90
2018-11-25T19:45:01.069Z,92.80
2018-11-25T19:47:30.799Z,93.00
2018-11-25T19:50:01.986Z,93.10
2018-11-25T19:58:29.737Z,93.10
2018-11-25T20:01:03.627Z,92.90
2018-11-25T20:03:33.277Z,92.80
2018-11-25T20:06:11.158Z,92.70
2018-11-25T20:08:43.541Z,92.80
2018-11-25T20:11:15.455Z,92.60
2018-11-25T20:13:56.453Z,92.70
2018-11-25T20:22:38.581Z,92.90
2018-11-25T20:25:09.902Z,93.00
2018-11-25T20:27:39.160Z,92.90
2018-11-25T20:30:10.877Z,92.90
2018-11-25T20:32:44.825Z,92.90
2018-11-25T20:35:12.756Z,92.80
2018-11-25T20:37:46.344Z,92.90
2018-11-25T20:40:15.039Z,92.80
2018-11-25T20:42:43.077Z,92.80
2018-11-25T20:45:27.764Z,92.90
2018-11-25T20:47:59.027Z,92.90
2018-11-25T20:50:25.846Z,92.90
2018-11-25T20:52:59.460Z,92.70
2018-11-25T20:55:27.639Z,92.70
2018-11-25T20:57:55.504Z,92.70
2018-11-25T21:00:25.488Z,92.80
2018-11-25T21:02:53.384Z,92.80
2018-11-25T21:05:21.237Z,92.80
2018-11-25T21:07:49.226Z,92.90
2018-11-25T21:10:18.611Z,92.90
2018-11-25T21:12:48.332Z,92.90
2018-11-25T21:15:16.120Z,92.90
2018-11-25T21:17:43.980Z,92.90
2018-11-25T21:20:21.023Z,93.00
2018-11-25T21:22:49.033Z,93.00
2018-11-25T21:25:18.285Z,93.00
2018-11-25T21:27:46.340Z,92.90
2018-11-25T21:30:17.130Z,93.00
2018-11-25T21:32:46.138Z,92.90
2018-11-25T21:35:14.233Z,92.90
2018-11-25T21:37:42.113Z,92.90
2018-11-25T21:40:20.169Z,92.90
2018-11-25T21:42:48.208Z,92.70
2018-11-25T21:45:17.336Z,92.70
2018-11-25T21:47:45.818Z,92.70
2018-11-25T21:50:18.310Z,92.80
2018-11-25T21:52:46.282Z,92.70
2018-11-25T21:55:16.296Z,92.70
2018-11-25T21:57:44.425Z,92.70
2018-11-25T22:00:15.258Z,92.90
2018-11-25T22:02:43.231Z,92.80
2018-11-25T22:05:11.882Z,92.80
2018-11-25T22:07:39.703Z,92.70
2018-11-25T22:10:11.917Z,92.70
2018-11-25T22:12:40.778Z,92.70
2018-11-25T22:15:11.328Z,92.70
2018-11-25T22:17:39.826Z,92.70
2018-11-25T22:20:10.391Z,92.70
2018-11-25T22:22:38.337Z,92.80
2018-11-25T22:25:08.161Z,92.80
2018-11-25T22:27:36.133Z,92.80
2018-11-25T22:30:09.380Z,92.90
2018-11-25T22:32:37.671Z,92.90
2018-11-25T22:35:10.916Z,92.90
2018-11-25T22:37:38.895Z,92.90
2018-11-25T22:40:08.858Z,92.80
2018-11-25T22:42:37.116Z,92.90
2018-11-25T22:45:09.172Z,93.00
2018-11-25T22:47:37.212Z,93.00
2018-11-25T22:50:07.684Z,93.00
2018-11-25T22:52:35.684Z,93.10
2018-11-25T22:55:04.116Z,92.90
2018-11-25T22:57:31.977Z,93.10
2018-11-25T22:59:59.819Z,93.00
2018-11-25T23:02:27.682Z,93.00
2018-11-25T23:05:12.692Z,93.00
2018-11-25T23:07:40.737Z,92.90
2018-11-25T23:10:15.420Z,92.90
2018-11-25T23:12:43.308Z,92.90
2018-11-25T23:15:11.340Z,92.80
2018-11-25T23:17:39.256Z,92.90
2018-11-25T23:20:07.189Z,92.90
2018-11-25T23:22:35.532Z,93.00
2018-11-25T23:25:03.632Z,92.90
2018-11-25T23:27:31.477Z,92.90
2018-11-25T23:29:59.296Z,92.90
2018-11-25T23:32:27.160Z,92.90
2018-11-25T23:34:54.986Z,92.80
2018-11-25T23:37:22.797Z,92.90
2018-11-25T23:39:50.696Z,93.30
2018-11-25T23:42:18.532Z,92.90
2018-11-25T23:44:46.385Z,92.70
2018-11-25T23:47:14.260Z,92.70
2018-11-25T23:49:42.128Z,92.60
2018-11-25T23:52:10.091Z,92.70
2018-11-25T23:54:37.952Z,92.70
2018-11-25T23:57:05.894Z,92.60
2018-11-25T23:59:33.785Z,92.90
